createdAt,value
2018-09-19T00:02:35.192Z,32.93
2018-09-19T00:05:16.724Z,36.53
2018-09-19T00:07:46.448Z,27.50
2018-09-19T01:02:36.080Z,43.90
2018-09-19T01:05:05.224Z,44.60
2018-09-19T01:07:34.274Z,43.17
2018-09-19T01:10:03.317Z,41.87
2018-09-19T02:02:43.342Z,45.50
2018-09-19T02:05:12.037Z,43.83
2018-09-19T02:07:40.764Z,41.53
2018-09-19T03:02:35.025Z,44.53
2018-09-19T03:05:03.737Z,42.23
2018-09-19T03:07:32.425Z,40.37
2018-09-19T03:10:01.165Z,40.63
2018-09-19T04:02:39.758Z,49.33
2018-09-19T04:05:08.478Z,45.23
2018-09-19T04:07:55.434Z,42.40
2018-09-19T05:02:36.125Z,42.23
2018-09-19T05:05:05.156Z,39.17
2018-09-19T05:07:33.865Z,34.80
2018-09-19T05:10:02.625Z,34.27
2018-09-19T06:02:34.865Z,31.63
2018-09-19T06:05:20.471Z,28.83
2018-09-19T06:07:49.237Z,28.37
2018-09-19T07:02:49.542Z,23.50
2018-09-19T07:05:18.333Z,20.93
2018-09-19T07:07:47.086Z,19.10
2018-09-19T08:02:34.957Z,15.53
2018-09-19T08:05:03.676Z,15.13
2018-09-19T08:07:32.428Z,14.33
2018-09-19T08:10:01.145Z,14.03
2018-09-19T09:02:36.120Z,11.73
2018-09-19T09:05:04.913Z,12.03
2018-09-19T09:07:33.605Z,11.30
2018-09-19T09:10:02.426Z,11.93
2018-09-19T10:02:35.339Z,11.63
2018-09-19T10:05:04.087Z,11.03
2018-09-19T10:07:32.781Z,9.77
2018-09-19T11:02:35.005Z,10.10
2018-09-19T11:05:03.748Z,9.47
2018-09-19T11:07:32.459Z,9.20
2018-09-19T11:10:01.234Z,8.77
2018-09-19T12:02:35.853Z,8.47
2018-09-19T12:05:04.580Z,8.10
2018-09-19T12:07:33.289Z,8.43
2018-09-19T12:10:02.010Z,8.80
2018-09-19T13:02:42.127Z,8.43
2018-09-19T13:05:10.829Z,8.53
2018-09-19T13:07:39.517Z,8.90
2018-09-19T14:02:37.779Z,8.30
2018-09-19T14:05:06.517Z,9.03
2018-09-19T15:02:39.409Z,8.43
2018-09-19T15:05:08.093Z,8.50
2018-09-19T15:07:36.853Z,7.60
2018-09-19T15:10:05.976Z,7.87
2018-09-19T19:02:38.842Z,14.63
2018-09-19T19:05:07.591Z,14.43
2018-09-19T19:07:38.386Z,13.67
2018-09-19T19:10:07.218Z,13.63
2018-09-19T20:02:35.065Z,14.93
2018-09-19T20:05:03.883Z,14.47
2018-09-19T20:07:32.620Z,14.50
2018-09-19T20:10:01.798Z,14.67
2018-09-19T21:02:38.525Z,20.93
2018-09-19T21:05:07.366Z,20.17
2018-09-19T21:07:36.214Z,18.83
2018-09-19T21:10:04.998Z,18.20
2018-09-19T22:02:38.214Z,24.73
2018-09-19T22:05:07.100Z,24.00
2018-09-19T22:07:35.788Z,22.73
2018-09-19T22:10:05.040Z,22.37
2018-09-19T22:12:33.746Z,22.50
2018-09-19T22:15:02.438Z,20.10
2018-09-19T22:17:31.174Z,21.03
2018-09-19T22:20:00.119Z,20.17
2018-09-19T22:22:28.853Z,19.40
2018-09-19T22:24:57.583Z,20.27
2018-09-19T22:27:26.286Z,20.10
2018-09-19T22:29:54.961Z,20.47
2018-09-19T22:32:23.688Z,17.93
2018-09-19T22:34:52.473Z,18.30
2018-09-19T22:37:21.150Z,17.60
2018-09-19T22:39:50.216Z,19.97
2018-09-19T22:42:18.912Z,18.77
2018-09-19T22:44:47.608Z,18.30
2018-09-19T22:47:16.301Z,19.50
2018-09-19T22:49:44.973Z,20.13
2018-09-19T22:52:13.670Z,18.17
2018-09-19T22:54:42.453Z,19.90
2018-09-19T22:57:11.140Z,18.90
2018-09-19T22:59:39.838Z,19.63
2018-09-19T23:02:08.594Z,19.82
2018-09-19T23:04:37.305Z,21.57
2018-09-19T23:07:06.103Z,22.20
2018-09-19T23:09:34.827Z,22.43
